TimeCDT,TemperatureF,Dew PointF,Humidity,Sea Level PressureIn,VisibilityMPH,Wind Direction,Wind SpeedMPH,Gust SpeedMPH,PrecipitationIn,Events,Conditions,WindDirDegrees,DateUTC
12:56 AM,37.9,28.9,70,30.14,10.0,SE,6.9,-,N/A,,Clear,140,2012-10-30 05:56:00
1:56 AM,37.0,28.9,73,30.14,10.0,SE,6.9,-,N/A,,Clear,140,2012-10-30 06:56:00
2:56 AM,36.0,28.9,76,30.14,10.0,ESE,6.9,-,N/A,,Mostly Cloudy,120,2012-10-30 07:56:00
3:56 AM,36.0,28.9,76,30.13,10.0,East,5.8,-,N/A,,Mostly Cloudy,90,2012-10-30 08:56:00
4:56 AM,37.0,28.9,73,30.14,10.0,East,9.2,-,N/A,,Overcast,100,2012-10-30 09:56:00
5:56 AM,37.0,30.0,76,30.15,10.0,East,6.9,-,0.00,Rain,Light Rain,90,2012-10-30 10:56:00
6:56 AM,37.4,30.2,75,30.10,10.0,Calm,Calm,-,N/A,,Overcast,0,2012-10-30 11:56:00
7:56 AM,37.0,28.9,73,30.14,10.0,ESE,10.4,-,N/A,,Overcast,110,2012-10-30 12:56:00
8:56 AM,37.9,28.9,70,30.15,10.0,ESE,10.4,-,N/A,,Overcast,120,2012-10-30 13:56:00
9:56 AM,39.0,28.9,67,30.15,10.0,SE,11.5,-,N/A,,Overcast,130,2012-10-30 14:56:00
10:56 AM,39.9,28.9,65,30.15,10.0,SSE,8.1,-,N/A,,Overcast,150,2012-10-30 15:56:00
11:56 AM,42.8,28.4,57,30.12,10.0,SSE,11.5,-,N/A,,Overcast,150,2012-10-30 16:56:00
12:56 PM,44.1,28.0,53,30.16,10.0,SE,8.1,-,0.00,,Overcast,130,2012-10-30 17:56:00
1:56 PM,46.0,27.0,47,30.13,10.0,SE,9.2,-,N/A,,Overcast,140,2012-10-30 18:56:00
2:56 PM,46.9,27.0,46,30.12,10.0,ESE,8.1,-,N/A,,Mostly Cloudy,110,2012-10-30 19:56:00
3:56 PM,48.0,27.0,44,30.11,10.0,ESE,11.5,-,N/A,,Mostly Cloudy,110,2012-10-30 20:56:00
4:56 PM,48.0,25.0,41,30.10,10.0,ESE,11.5,-,N/A,,Mostly Cloudy,110,2012-10-30 21:56:00
5:56 PM,45.0,26.1,48,30.09,10.0,ESE,8.1,-,N/A,,Partly Cloudy,120,2012-10-30 22:56:00
6:56 PM,39.9,27.0,60,30.11,10.0,ENE,4.6,-,N/A,,Scattered Clouds,70,2012-10-30 23:56:00
7:56 PM,41.0,25.0,53,30.09,10.0,SE,5.8,-,N/A,,Partly Cloudy,140,2012-10-31 00:56:00
8:56 PM,39.0,26.1,60,30.10,10.0,East,3.5,-,N/A,,Mostly Cloudy,80,2012-10-31 01:56:00
9:56 PM,39.9,27.0,60,30.10,10.0,East,4.6,-,N/A,,Overcast,90,2012-10-31 02:56:00
10:56 PM,37.0,25.0,62,30.10,10.0,Calm,Calm,-,N/A,,Partly Cloudy,0,2012-10-31 03:56:00
11:56 PM,33.1,26.1,75,30.10,10.0,NE,3.5,-,N/A,,Partly Cloudy,50,2012-10-31 04:56:00